KGAI/GAI METAR and TAF weather

Enter ICAO airport designator
Station Type Date Time Source
KGAI METAR 2019/06/17 14:56 UTC NOAA

KGAI 171456Z AUTO VRB04KT 10SM CLR 29/19 A3001 RMK AO2 SLP179 6//// T02890189 55001 PNO $


Station Type Date Time Source
KGAI Decoded METAR 2019/06/17 14:56 UTC NOAA

Station name not available
Jun 17, 2019 - 10:56 AM EDT / 2019.06.17 1456 UTC
Wind: Variable at 5 MPH (4 KT):0
Visibility: 10 mile(s):0
Sky conditions: clear
Temperature: 84.0 F (28.9 C)
Dew Point: 66.0 F (18.9 C)
Relative Humidity: 54%
Pressure (altimeter): 30.01 in. Hg (1016 hPa)
Pressure tendency: 0.00 inches (0.1 hPa) lower than three hours ago
ob: KGAI 171456Z AUTO VRB04KT 10SM CLR 29/19 A3001 RMK AO2 SLP179 6//// T02890189 55001 PNO
cycle: 15

Station Type Date Time Source
KGAI TAF UTC NOAA

Error!

Example: see airport list